sensor_id;sensor_type;location;lat;lon;timestamp;P1;durP1;ratioP1;P2;durP2;ratioP2
37379;SDS011;23252;-33.992;18.480;2023-05-07T02:16:57;4.45;;;1.00;;
37379;SDS011;23252;-33.992;18.480;2023-05-07T02:19:23;7.55;;;1.42;;
37379;SDS011;23252;-33.992;18.480;2023-05-07T02:21:50;9.68;;;1.40;;
37379;SDS011;23252;-33.992;18.480;2023-05-07T02:24:18;10.15;;;0.98;;
37379;SDS011;23252;-33.992;18.480;2023-05-07T02:26:44;9.25;;;1.17;;
37379;SDS011;23252;-33.992;18.480;2023-05-07T02:29:11;5.30;;;1.00;;
37379;SDS011;23252;-33.992;18.480;2023-05-07T02:31:37;11.70;;;1.75;;
37379;SDS011;23252;-33.992;18.480;2023-05-07T02:34:04;11.38;;;1.33;;
37379;SDS011;23252;-33.992;18.480;2023-05-07T02:36:30;11.13;;;1.20;;
37379;SDS011;23252;-33.992;18.480;2023-05-07T02:38:57;5.72;;;1.40;;
37379;SDS011;23252;-33.992;18.480;2023-05-07T02:41:24;9.52;;;1.33;;
37379;SDS011;23252;-33.992;18.480;2023-05-07T02:43:50;9.38;;;1.10;;
37379;SDS011;23252;-33.992;18.480;2023-05-07T02:46:17;9.77;;;1.60;;
37379;SDS011;23252;-33.992;18.480;2023-05-07T02:48:43;10.73;;;2.27;;
37379;SDS011;23252;-33.992;18.480;2023-05-07T02:51:10;16.00;;;1.75;;
37379;SDS011;23252;-33.992;18.480;2023-05-07T02:53:36;12.13;;;1.60;;
37379;SDS011;23252;-33.992;18.480;2023-05-07T02:56:03;8.10;;;1.67;;
37379;SDS011;23252;-33.992;18.480;2023-05-07T02:58:31;7.03;;;1.38;;
37379;SDS011;23252;-33.992;18.480;2023-05-07T03:00:57;11.87;;;1.67;;
37379;SDS011;23252;-33.992;18.480;2023-05-07T03:03:24;13.20;;;1.83;;
37379;SDS011;23252;-33.992;18.480;2023-05-07T03:05:50;15.60;;;1.87;;
37379;SDS011;23252;-33.992;18.480;2023-05-07T03:08:17;15.48;;;2.13;;
37379;SDS011;23252;-33.992;18.480;2023-05-07T03:10:43;9.47;;;1.33;;
37379;SDS011;23252;-33.992;18.480;2023-05-07T03:13:10;10.50;;;1.60;;
37379;SDS011;23252;-33.992;18.480;2023-05-07T03:15:36;12.33;;;1.53;;
37379;SDS011;23252;-33.992;18.480;2023-05-07T03:18:03;10.77;;;1.57;;
37379;SDS011;23252;-33.992;18.480;2023-05-07T03:20:29;14.88;;;1.40;;
37379;SDS011;23252;-33.992;18.480;2023-05-07T03:22:56;11.10;;;1.52;;
37379;SDS011;23252;-33.992;18.480;2023-05-07T03:25:23;16.50;;;2.00;;
37379;SDS011;23252;-33.992;18.480;2023-05-07T03:27:49;12.20;;;1.40;;
37379;SDS011;23252;-33.992;18.480;2023-05-07T03:30:16;15.23;;;1.70;;
37379;SDS011;23252;-33.992;18.480;2023-05-07T03:32:42;9.70;;;1.73;;
37379;SDS011;23252;-33.992;18.480;2023-05-07T03:35:09;10.63;;;1.77;;
37379;SDS011;23252;-33.992;18.480;2023-05-07T03:37:35;15.10;;;2.00;;
37379;SDS011;23252;-33.992;18.480;2023-05-07T03:40:02;14.40;;;1.70;;
37379;SDS011;23252;-33.992;18.480;2023-05-07T03:42:29;18.10;;;2.17;;
37379;SDS011;23252;-33.992;18.480;2023-05-07T03:44:56;15.52;;;2.10;;
37379;SDS011;23252;-33.992;18.480;2023-05-07T03:47:22;12.77;;;2.93;;
37379;SDS011;23252;-33.992;18.480;2023-05-07T03:49:48;15.60;;;1.87;;
37379;SDS011;23252;-33.992;18.480;2023-05-07T03:52:15;12.15;;;1.65;;
37379;SDS011;23252;-33.992;18.480;2023-05-07T03:54:48;6.60;;;1.10;;
37379;SDS011;23252;-33.992;18.480;2023-05-07T03:57:14;11.55;;;1.45;;
37379;SDS011;23252;-33.992;18.480;2023-05-07T03:59:41;16.60;;;2.10;;
37379;SDS011;23252;-33.992;18.480;2023-05-07T04:02:07;22.77;;;2.22;;
37379;SDS011;23252;-33.992;18.480;2023-05-07T04:04:34;17.95;;;1.50;;
37379;SDS011;23252;-33.992;18.480;2023-05-07T04:07:00;14.43;;;1.67;;
37379;SDS011;23252;-33.992;18.480;2023-05-07T04:11:54;11.73;;;1.92;;
37379;SDS011;23252;-33.992;18.480;2023-05-07T04:14:20;21.17;;;1.90;;
37379;SDS011;23252;-33.992;18.480;2023-05-07T04:16:47;12.33;;;1.40;;
37379;SDS011;23252;-33.992;18.480;2023-05-07T04:19:13;14.70;;;1.55;;
37379;SDS011;23252;-33.992;18.480;2023-05-07T04:21:40;18.57;;;2.23;;
37379;SDS011;23252;-33.992;18.480;2023-05-07T04:24:06;12.73;;;2.20;;
37379;SDS011;23252;-33.992;18.480;2023-05-07T04:26:33;20.00;;;2.22;;
37379;SDS011;23252;-33.992;18.480;2023-05-07T04:28:59;16.38;;;1.88;;
37379;SDS011;23252;-33.992;18.480;2023-05-07T04:31:26;10.82;;;1.45;;
37379;SDS011;23252;-33.992;18.480;2023-05-07T04:33:53;10.20;;;1.67;;
37379;SDS011;23252;-33.992;18.480;2023-05-07T04:36:19;16.20;;;2.65;;
37379;SDS011;23252;-33.992;18.480;2023-05-07T04:38:46;14.90;;;2.33;;
37379;SDS011;23252;-33.992;18.480;2023-05-07T04:41:13;11.10;;;1.40;;
37379;SDS011;23252;-33.992;18.480;2023-05-07T04:43:40;10.75;;;2.17;;
37379;SDS011;23252;-33.992;18.480;2023-05-07T04:46:06;22.58;;;2.28;;
37379;SDS011;23252;-33.992;18.480;2023-05-07T04:48:33;11.37;;;1.53;;
37379;SDS011;23252;-33.992;18.480;2023-05-07T04:50:59;14.73;;;2.40;;
37379;SDS011;23252;-33.992;18.480;2023-05-07T04:53:26;18.93;;;3.00;;
37379;SDS011;23252;-33.992;18.480;2023-05-07T04:55:56;16.23;;;1.50;;
37379;SDS011;23252;-33.992;18.480;2023-05-07T04:58:23;13.82;;;1.75;;
37379;SDS011;23252;-33.992;18.480;2023-05-07T05:00:50;14.52;;;1.77;;
37379;SDS011;23252;-33.992;18.480;2023-05-07T05:03:17;12.40;;;2.05;;
37379;SDS011;23252;-33.992;18.480;2023-05-07T05:05:43;17.10;;;1.83;;
37379;SDS011;23252;-33.992;18.480;2023-05-07T05:08:10;15.27;;;2.28;;
37379;SDS011;23252;-33.992;18.480;2023-05-07T05:10:36;15.90;;;2.13;;
37379;SDS011;23252;-33.992;18.480;2023-05-07T05:13:03;13.50;;;1.98;;
37379;SDS011;23252;-33.992;18.480;2023-05-07T05:15:30;20.27;;;2.63;;
37379;SDS011;23252;-33.992;18.480;2023-05-07T05:17:56;13.43;;;2.33;;
37379;SDS011;23252;-33.992;18.480;2023-05-07T05:20:23;14.10;;;2.03;;
37379;SDS011;23252;-33.992;18.480;2023-05-07T05:22:50;17.80;;;2.08;;
37379;SDS011;23252;-33.992;18.480;2023-05-07T05:25:16;17.58;;;2.83;;
37379;SDS011;23252;-33.992;18.480;2023-05-07T05:27:46;15.83;;;2.83;;
37379;SDS011;23252;-33.992;18.480;2023-05-07T05:30:13;23.77;;;7.63;;
37379;SDS011;23252;-33.992;18.480;2023-05-07T05:32:39;20.23;;;4.75;;
37379;SDS011;23252;-33.992;18.480;2023-05-07T05:35:06;22.43;;;5.47;;
37379;SDS011;23252;-33.992;18.480;2023-05-07T05:37:33;32.95;;;9.60;;
37379;SDS011;23252;-33.992;18.480;2023-05-07T05:40:00;22.87;;;5.50;;
37379;SDS011;23252;-33.992;18.480;2023-05-07T05:42:26;11.63;;;1.70;;
37379;SDS011;23252;-33.992;18.480;2023-05-07T05:44:53;12.73;;;1.63;;
37379;SDS011;23252;-33.992;18.480;2023-05-07T05:47:19;16.52;;;2.22;;
37379;SDS011;23252;-33.992;18.480;2023-05-07T05:49:46;18.80;;;2.40;;
37379;SDS011;23252;-33.992;18.480;2023-05-07T05:52:13;19.45;;;2.60;;
37379;SDS011;23252;-33.992;18.480;2023-05-07T05:54:39;11.95;;;1.95;;
37379;SDS011;23252;-33.992;18.480;2023-05-07T05:57:06;16.00;;;1.83;;
37379;SDS011;23252;-33.992;18.480;2023-05-07T05:59:35;12.50;;;1.90;;
37379;SDS011;23252;-33.992;18.480;2023-05-07T06:02:02;16.98;;;1.75;;
37379;SDS011;23252;-33.992;18.480;2023-05-07T06:04:28;19.27;;;1.95;;
37379;SDS011;23252;-33.992;18.480;2023-05-07T06:06:55;11.13;;;2.10;;
37379;SDS011;23252;-33.992;18.480;2023-05-07T06:09:22;15.38;;;2.28;;
37379;SDS011;23252;-33.992;18.480;2023-05-07T06:11:48;14.93;;;1.83;;
37379;SDS011;23252;-33.992;18.480;2023-05-07T06:14:15;11.27;;;1.63;;
37379;SDS011;23252;-33.992;18.480;2023-05-07T06:16:41;21.38;;;2.45;;
37379;SDS011;23252;-33.992;18.480;2023-05-07T06:19:08;12.57;;;2.00;;
37379;SDS011;23252;-33.992;18.480;2023-05-07T06:21:34;15.70;;;2.00;;
37379;SDS011;23252;-33.992;18.480;2023-05-07T06:24:01;14.35;;;2.42;;
37379;SDS011;23252;-33.992;18.480;2023-05-07T06:26:27;14.07;;;2.07;;
37379;SDS011;23252;-33.992;18.480;2023-05-07T06:28:54;22.35;;;2.90;;
37379;SDS011;23252;-33.992;18.480;2023-05-07T06:31:20;19.43;;;2.80;;
37379;SDS011;23252;-33.992;18.480;2023-05-07T06:33:47;9.50;;;1.60;;
37379;SDS011;23252;-33.992;18.480;2023-05-07T06:36:14;16.70;;;2.25;;
37379;SDS011;23252;-33.992;18.480;2023-05-07T06:38:41;19.10;;;2.60;;
37379;SDS011;23252;-33.992;18.480;2023-05-07T06:41:08;16.33;;;2.17;;
37379;SDS011;23252;-33.992;18.480;2023-05-07T06:43:35;14.15;;;2.35;;
37379;SDS011;23252;-33.992;18.480;2023-05-07T06:46:01;15.02;;;2.05;;
37379;SDS011;23252;-33.992;18.480;2023-05-07T06:48:28;16.53;;;2.83;;
37379;SDS011;23252;-33.992;18.480;2023-05-07T06:50:54;14.97;;;2.70;;
37379;SDS011;23252;-33.992;18.480;2023-05-07T06:53:23;15.18;;;2.13;;
37379;SDS011;23252;-33.992;18.480;2023-05-07T06:55:50;15.18;;;2.53;;
37379;SDS011;23252;-33.992;18.480;2023-05-07T06:58:17;18.73;;;2.97;;
37379;SDS011;23252;-33.992;18.480;2023-05-07T07:00:43;13.17;;;1.97;;
37379;SDS011;23252;-33.992;18.480;2023-05-07T07:03:11;15.85;;;2.15;;
37379;SDS011;23252;-33.992;18.480;2023-05-07T07:05:37;16.30;;;2.70;;
37379;SDS011;23252;-33.992;18.480;2023-05-07T07:08:04;15.32;;;2.15;;
37379;SDS011;23252;-33.992;18.480;2023-05-07T07:10:31;15.10;;;1.98;;
37379;SDS011;23252;-33.992;18.480;2023-05-07T07:12:57;14.20;;;2.43;;
37379;SDS011;23252;-33.992;18.480;2023-05-07T07:15:24;10.10;;;1.70;;
37379;SDS011;23252;-33.992;18.480;2023-05-07T07:17:51;18.10;;;2.78;;
37379;SDS011;23252;-33.992;18.480;2023-05-07T07:20:18;20.60;;;2.00;;
37379;SDS011;23252;-33.992;18.480;2023-05-07T07:22:45;35.50;;;3.50;;
37379;SDS011;23252;-33.992;18.480;2023-05-07T07:25:12;22.33;;;2.42;;
37379;SDS011;23252;-33.992;18.480;2023-05-07T07:27:38;9.85;;;1.90;;
37379;SDS011;23252;-33.992;18.480;2023-05-07T07:30:05;13.40;;;2.15;;
37379;SDS011;23252;-33.992;18.480;2023-05-07T07:32:36;14.52;;;2.22;;
37379;SDS011;23252;-33.992;18.480;2023-05-07T07:35:02;13.27;;;1.95;;
37379;SDS011;23252;-33.992;18.480;2023-05-07T07:37:32;13.65;;;2.50;;
37379;SDS011;23252;-33.992;18.480;2023-05-07T07:39:59;11.82;;;1.77;;
37379;SDS011;23252;-33.992;18.480;2023-05-07T07:42:28;12.07;;;1.75;;
37379;SDS011;23252;-33.992;18.480;2023-05-07T07:44:55;9.57;;;1.48;;
37379;SDS011;23252;-33.992;18.480;2023-05-07T07:47:22;13.77;;;1.85;;
37379;SDS011;23252;-33.992;18.480;2023-05-07T07:49:49;16.65;;;2.45;;
37379;SDS011;23252;-33.992;18.480;2023-05-07T07:52:16;8.75;;;1.52;;
37379;SDS011;23252;-33.992;18.480;2023-05-07T07:57:10;10.15;;;1.38;;
37379;SDS011;23252;-33.992;18.480;2023-05-07T07:59:40;9.02;;;1.13;;
37379;SDS011;23252;-33.992;18.480;2023-05-07T08:02:08;9.50;;;1.55;;
37379;SDS011;23252;-33.992;18.480;2023-05-07T08:04:35;14.82;;;1.73;;
37379;SDS011;23252;-33.992;18.480;2023-05-07T10:13:42;7.88;;;1.13;;
37379;SDS011;23252;-33.992;18.480;2023-05-07T10:16:10;4.78;;;1.48;;
37379;SDS011;23252;-33.992;18.480;2023-05-07T10:18:36;5.00;;;1.20;;
37379;SDS011;23252;-33.992;18.480;2023-05-07T10:21:11;6.97;;;1.40;;
37379;SDS011;23252;-33.992;18.480;2023-05-07T10:23:45;5.45;;;1.17;;
37379;SDS011;23252;-33.992;18.480;2023-05-07T10:26:15;8.07;;;0.98;;
37379;SDS011;23252;-33.992;18.480;2023-05-07T10:28:45;5.55;;;1.60;;
37379;SDS011;23252;-33.992;18.480;2023-05-07T10:36:20;6.00;;;1.20;;
37379;SDS011;23252;-33.992;18.480;2023-05-07T10:38:48;5.38;;;1.05;;
37379;SDS011;23252;-33.992;18.480;2023-05-07T10:41:16;4.78;;;1.25;;
37379;SDS011;23252;-33.992;18.480;2023-05-07T10:49:22;5.55;;;1.30;;
37379;SDS011;23252;-33.992;18.480;2023-05-07T10:51:31;4.07;;;0.90;;
37379;SDS011;23252;-33.992;18.480;2023-05-07T10:56:41;5.22;;;1.40;;
37379;SDS011;23252;-33.992;18.480;2023-05-07T11:01:56;3.90;;;1.27;;
37379;SDS011;23252;-33.992;18.480;2023-05-07T11:04:24;4.53;;;1.10;;
37379;SDS011;23252;-33.992;18.480;2023-05-07T11:15:06;4.63;;;1.55;;
37379;SDS011;23252;-33.992;18.480;2023-05-07T11:17:34;6.35;;;2.00;;
37379;SDS011;23252;-33.992;18.480;2023-05-07T11:20:17;7.20;;;1.83;;
37379;SDS011;23252;-33.992;18.480;2023-05-07T11:22:44;5.53;;;2.03;;
37379;SDS011;23252;-33.992;18.480;2023-05-07T11:25:10;5.88;;;1.45;;
37379;SDS011;23252;-33.992;18.480;2023-05-07T11:27:46;3.85;;;1.27;;
37379;SDS011;23252;-33.992;18.480;2023-05-07T11:30:17;4.18;;;1.42;;
37379;SDS011;23252;-33.992;18.480;2023-05-07T11:32:44;5.38;;;1.30;;
37379;SDS011;23252;-33.992;18.480;2023-05-07T11:35:13;6.97;;;1.60;;
37379;SDS011;23252;-33.992;18.480;2023-05-07T11:37:42;4.70;;;1.50;;
37379;SDS011;23252;-33.992;18.480;2023-05-07T11:40:10;5.97;;;1.85;;
37379;SDS011;23252;-33.992;18.480;2023-05-07T11:42:39;4.80;;;1.77;;
37379;SDS011;23252;-33.992;18.480;2023-05-07T11:45:09;6.57;;;1.50;;
37379;SDS011;23252;-33.992;18.480;2023-05-07T11:47:36;5.45;;;1.40;;
37379;SDS011;23252;-33.992;18.480;2023-05-07T11:50:03;6.78;;;1.55;;
37379;SDS011;23252;-33.992;18.480;2023-05-07T11:52:31;4.18;;;1.10;;
37379;SDS011;23252;-33.992;18.480;2023-05-07T11:54:58;4.45;;;1.40;;
37379;SDS011;23252;-33.992;18.480;2023-05-07T11:57:26;6.32;;;1.67;;
37379;SDS011;23252;-33.992;18.480;2023-05-07T11:59:54;9.00;;;2.00;;
37379;SDS011;23252;-33.992;18.480;2023-05-07T12:02:21;4.28;;;1.40;;
37379;SDS011;23252;-33.992;18.480;2023-05-07T12:04:50;7.47;;;1.25;;
37379;SDS011;23252;-33.992;18.480;2023-05-07T12:07:17;4.45;;;1.60;;
37379;SDS011;23252;-33.992;18.480;2023-05-07T12:09:45;7.88;;;1.55;;
37379;SDS011;23252;-33.992;18.480;2023-05-07T12:12:12;3.47;;;1.33;;
37379;SDS011;23252;-33.992;18.480;2023-05-07T12:14:43;6.32;;;1.67;;
37379;SDS011;23252;-33.992;18.480;2023-05-07T12:17:12;7.63;;;1.35;;
37379;SDS011;23252;-33.992;18.480;2023-05-07T12:19:39;5.85;;;1.40;;
37379;SDS011;23252;-33.992;18.480;2023-05-07T12:22:07;7.65;;;1.70;;
37379;SDS011;23252;-33.992;18.480;2023-05-07T12:24:47;6.28;;;1.33;;
37379;SDS011;23252;-33.992;18.480;2023-05-07T12:27:15;6.90;;;1.48;;
37379;SDS011;23252;-33.992;18.480;2023-05-07T12:29:46;7.63;;;1.92;;
37379;SDS011;23252;-33.992;18.480;2023-05-07T12:32:16;2.90;;;1.40;;
37379;SDS011;23252;-33.992;18.480;2023-05-07T12:34:44;7.80;;;1.42;;
37379;SDS011;23252;-33.992;18.480;2023-05-07T12:37:11;5.03;;;1.33;;
37379;SDS011;23252;-33.992;18.480;2023-05-07T12:39:43;3.50;;;1.23;;
37379;SDS011;23252;-33.992;18.480;2023-05-07T12:42:16;9.73;;;1.65;;
37379;SDS011;23252;-33.992;18.480;2023-05-07T12:44:51;3.08;;;1.10;;
37379;SDS011;23252;-33.992;18.480;2023-05-07T12:47:17;3.78;;;1.17;;
37379;SDS011;23252;-33.992;18.480;2023-05-07T12:49:44;4.82;;;1.38;;
37379;SDS011;23252;-33.992;18.480;2023-05-07T12:54:37;5.80;;;1.30;;
37379;SDS011;23252;-33.992;18.480;2023-05-07T12:57:05;4.65;;;1.80;;
37379;SDS011;23252;-33.992;18.480;2023-05-07T13:01:59;5.43;;;1.73;;
37379;SDS011;23252;-33.992;18.480;2023-05-07T13:04:26;3.72;;;1.10;;
37379;SDS011;23252;-33.992;18.480;2023-05-07T13:06:52;6.63;;;1.90;;
37379;SDS011;23252;-33.992;18.480;2023-05-07T13:09:19;9.77;;;1.98;;
37379;SDS011;23252;-33.992;18.480;2023-05-07T13:11:45;10.05;;;2.08;;
37379;SDS011;23252;-33.992;18.480;2023-05-07T13:14:12;5.07;;;1.60;;
37379;SDS011;23252;-33.992;18.480;2023-05-07T13:16:38;5.50;;;1.50;;
37379;SDS011;23252;-33.992;18.480;2023-05-07T13:19:05;5.65;;;1.63;;
37379;SDS011;23252;-33.992;18.480;2023-05-07T13:21:31;5.07;;;1.60;;
37379;SDS011;23252;-33.992;18.480;2023-05-07T13:23:58;5.85;;;1.38;;
37379;SDS011;23252;-33.992;18.480;2023-05-07T13:26:25;6.63;;;1.67;;
37379;SDS011;23252;-33.992;18.480;2023-05-07T13:28:52;5.22;;;1.50;;
37379;SDS011;23252;-33.992;18.480;2023-05-07T13:31:19;11.80;;;2.28;;
37379;SDS011;23252;-33.992;18.480;2023-05-07T13:33:46;8.90;;;1.88;;
37379;SDS011;23252;-33.992;18.480;2023-05-07T13:36:13;8.95;;;1.88;;
37379;SDS011;23252;-33.992;18.480;2023-05-07T13:38:40;13.40;;;2.10;;
37379;SDS011;23252;-33.992;18.480;2023-05-07T13:41:06;9.63;;;2.03;;
37379;SDS011;23252;-33.992;18.480;2023-05-07T13:43:33;13.68;;;2.15;;
37379;SDS011;23252;-33.992;18.480;2023-05-07T13:45:59;9.05;;;1.85;;
37379;SDS011;23252;-33.992;18.480;2023-05-07T13:48:26;12.77;;;2.78;;
37379;SDS011;23252;-33.992;18.480;2023-05-07T13:50:53;11.30;;;1.80;;
37379;SDS011;23252;-33.992;18.480;2023-05-07T13:53:20;11.88;;;1.63;;
37379;SDS011;23252;-33.992;18.480;2023-05-07T13:55:46;8.98;;;1.65;;
37379;SDS011;23252;-33.992;18.480;2023-05-07T13:58:13;9.10;;;1.73;;
37379;SDS011;23252;-33.992;18.480;2023-05-07T14:00:39;8.02;;;1.77;;
37379;SDS011;23252;-33.992;18.480;2023-05-07T14:03:06;10.25;;;1.67;;
37379;SDS011;23252;-33.992;18.480;2023-05-07T14:05:32;14.70;;;1.52;;
37379;SDS011;23252;-33.992;18.480;2023-05-07T14:10:26;9.27;;;2.00;;
37379;SDS011;23252;-33.992;18.480;2023-05-07T14:12:53;10.50;;;1.95;;
37379;SDS011;23252;-33.992;18.480;2023-05-07T14:15:20;10.05;;;2.40;;
37379;SDS011;23252;-33.992;18.480;2023-05-07T14:17:46;11.02;;;1.77;;
37379;SDS011;23252;-33.992;18.480;2023-05-07T18:19:46;12.95;;;2.85;;
37379;SDS011;23252;-33.992;18.480;2023-05-07T18:22:15;15.23;;;3.53;;
37379;SDS011;23252;-33.992;18.480;2023-05-07T18:24:42;15.63;;;3.55;;
37379;SDS011;23252;-33.992;18.480;2023-05-07T18:27:09;16.48;;;4.35;;
37379;SDS011;23252;-33.992;18.480;2023-05-07T18:29:38;19.33;;;6.32;;
37379;SDS011;23252;-33.992;18.480;2023-05-07T18:32:05;14.07;;;4.50;;
37379;SDS011;23252;-33.992;18.480;2023-05-07T18:34:32;13.15;;;4.20;;
37379;SDS011;23252;-33.992;18.480;2023-05-07T18:36:58;18.07;;;3.73;;
37379;SDS011;23252;-33.992;18.480;2023-05-07T18:39:25;13.55;;;3.95;;
37379;SDS011;23252;-33.992;18.480;2023-05-07T18:41:51;10.20;;;3.30;;
37379;SDS011;23252;-33.992;18.480;2023-05-07T18:44:18;16.70;;;4.28;;
37379;SDS011;23252;-33.992;18.480;2023-05-07T18:46:45;12.68;;;3.60;;
37379;SDS011;23252;-33.992;18.480;2023-05-07T18:49:20;12.20;;;3.33;;
37379;SDS011;23252;-33.992;18.480;2023-05-07T18:51:47;12.88;;;3.03;;
37379;SDS011;23252;-33.992;18.480;2023-05-07T18:54:14;9.88;;;3.53;;
37379;SDS011;23252;-33.992;18.480;2023-05-07T18:56:40;10.18;;;3.50;;
37379;SDS011;23252;-33.992;18.480;2023-05-07T18:59:10;22.58;;;8.60;;
37379;SDS011;23252;-33.992;18.480;2023-05-07T19:01:36;21.85;;;8.77;;
37379;SDS011;23252;-33.992;18.480;2023-05-07T19:04:03;15.18;;;6.78;;
37379;SDS011;23252;-33.992;18.480;2023-05-07T19:06:29;15.65;;;6.15;;
37379;SDS011;23252;-33.992;18.480;2023-05-07T19:08:59;28.27;;;9.27;;
37379;SDS011;23252;-33.992;18.480;2023-05-07T19:11:26;16.15;;;5.85;;
37379;SDS011;23252;-33.992;18.480;2023-05-07T19:13:52;17.27;;;6.13;;
37379;SDS011;23252;-33.992;18.480;2023-05-07T19:16:19;16.73;;;5.77;;
37379;SDS011;23252;-33.992;18.480;2023-05-07T19:18:46;18.80;;;5.63;;
37379;SDS011;23252;-33.992;18.480;2023-05-07T19:21:16;14.13;;;5.60;;
37379;SDS011;23252;-33.992;18.480;2023-05-07T19:23:42;15.77;;;5.97;;
37379;SDS011;23252;-33.992;18.480;2023-05-07T19:26:10;18.85;;;5.28;;
37379;SDS011;23252;-33.992;18.480;2023-05-07T19:28:37;18.98;;;6.15;;
37379;SDS011;23252;-33.992;18.480;2023-05-07T19:31:04;13.88;;;6.15;;
37379;SDS011;23252;-33.992;18.480;2023-05-07T19:33:30;16.92;;;6.35;;
37379;SDS011;23252;-33.992;18.480;2023-05-07T19:35:57;18.15;;;6.75;;
37379;SDS011;23252;-33.992;18.480;2023-05-07T19:38:24;18.17;;;6.80;;
37379;SDS011;23252;-33.992;18.480;2023-05-07T19:40:54;18.95;;;7.10;;
37379;SDS011;23252;-33.992;18.480;2023-05-07T19:43:22;19.48;;;8.90;;
37379;SDS011;23252;-33.992;18.480;2023-05-07T19:45:48;21.73;;;9.63;;
37379;SDS011;23252;-33.992;18.480;2023-05-07T19:48:17;22.35;;;8.35;;
37379;SDS011;23252;-33.992;18.480;2023-05-07T19:50:46;16.40;;;8.27;;
37379;SDS011;23252;-33.992;18.480;2023-05-07T19:53:14;18.42;;;8.90;;
37379;SDS011;23252;-33.992;18.480;2023-05-07T19:55:43;19.95;;;8.48;;
37379;SDS011;23252;-33.992;18.480;2023-05-07T19:58:12;23.63;;;9.48;;
37379;SDS011;23252;-33.992;18.480;2023-05-07T20:00:41;18.20;;;9.90;;
37379;SDS011;23252;-33.992;18.480;2023-05-07T20:03:07;17.92;;;8.98;;
37379;SDS011;23252;-33.992;18.480;2023-05-07T20:05:38;29.73;;;10.88;;
37379;SDS011;23252;-33.992;18.480;2023-05-07T20:08:08;16.30;;;9.13;;
37379;SDS011;23252;-33.992;18.480;2023-05-07T20:10:34;18.17;;;8.38;;
37379;SDS011;23252;-33.992;18.480;2023-05-07T20:13:01;19.65;;;9.80;;
37379;SDS011;23252;-33.992;18.480;2023-05-07T20:15:28;18.17;;;9.50;;
37379;SDS011;23252;-33.992;18.480;2023-05-07T20:17:54;17.17;;;8.43;;
37379;SDS011;23252;-33.992;18.480;2023-05-07T20:20:21;21.60;;;7.95;;
37379;SDS011;23252;-33.992;18.480;2023-05-07T20:22:48;17.58;;;8.30;;
37379;SDS011;23252;-33.992;18.480;2023-05-07T20:25:14;14.57;;;7.30;;
37379;SDS011;23252;-33.992;18.480;2023-05-07T20:27:44;15.32;;;7.18;;
37379;SDS011;23252;-33.992;18.480;2023-05-07T20:30:10;15.40;;;7.60;;
37379;SDS011;23252;-33.992;18.480;2023-05-07T20:32:37;14.52;;;6.78;;
37379;SDS011;23252;-33.992;18.480;2023-05-07T20:35:04;15.98;;;7.63;;
37379;SDS011;23252;-33.992;18.480;2023-05-07T20:37:31;13.70;;;7.05;;
37379;SDS011;23252;-33.992;18.480;2023-05-07T20:39:59;14.60;;;6.93;;
37379;SDS011;23252;-33.992;18.480;2023-05-07T20:42:26;16.45;;;7.57;;
37379;SDS011;23252;-33.992;18.480;2023-05-07T20:44:52;11.50;;;5.85;;
37379;SDS011;23252;-33.992;18.480;2023-05-07T20:47:20;11.10;;;5.57;;
37379;SDS011;23252;-33.992;18.480;2023-05-07T20:49:50;14.02;;;7.03;;
37379;SDS011;23252;-33.992;18.480;2023-05-07T20:52:17;13.02;;;7.03;;
37379;SDS011;23252;-33.992;18.480;2023-05-07T20:54:44;16.27;;;7.88;;
37379;SDS011;23252;-33.992;18.480;2023-05-07T20:57:15;12.70;;;6.57;;
37379;SDS011;23252;-33.992;18.480;2023-05-07T20:59:43;12.95;;;7.03;;
37379;SDS011;23252;-33.992;18.480;2023-05-07T21:02:10;12.65;;;8.00;;
37379;SDS011;23252;-33.992;18.480;2023-05-07T21:04:36;13.10;;;7.93;;
37379;SDS011;23252;-33.992;18.480;2023-05-07T21:07:03;14.10;;;7.30;;
37379;SDS011;23252;-33.992;18.480;2023-05-07T21:09:29;13.65;;;6.78;;
37379;SDS011;23252;-33.992;18.480;2023-05-07T21:11:56;13.05;;;7.07;;
37379;SDS011;23252;-33.992;18.480;2023-05-07T21:14:22;13.70;;;7.43;;
37379;SDS011;23252;-33.992;18.480;2023-05-07T21:16:49;12.70;;;6.63;;
37379;SDS011;23252;-33.992;18.480;2023-05-07T21:19:16;11.77;;;6.38;;
37379;SDS011;23252;-33.992;18.480;2023-05-07T21:21:42;14.00;;;6.30;;
37379;SDS011;23252;-33.992;18.480;2023-05-07T21:24:09;11.70;;;6.53;;
37379;SDS011;23252;-33.992;18.480;2023-05-07T21:26:35;14.80;;;7.22;;
37379;SDS011;23252;-33.992;18.480;2023-05-07T21:29:02;14.17;;;6.97;;
37379;SDS011;23252;-33.992;18.480;2023-05-07T21:31:29;13.38;;;7.38;;
37379;SDS011;23252;-33.992;18.480;2023-05-07T21:33:55;14.20;;;8.17;;
37379;SDS011;23252;-33.992;18.480;2023-05-07T21:36:22;16.98;;;8.00;;
37379;SDS011;23252;-33.992;18.480;2023-05-07T21:38:49;11.60;;;7.07;;
37379;SDS011;23252;-33.992;18.480;2023-05-07T21:41:15;12.98;;;7.80;;
37379;SDS011;23252;-33.992;18.480;2023-05-07T21:43:44;16.90;;;8.48;;
37379;SDS011;23252;-33.992;18.480;2023-05-07T21:46:11;17.87;;;8.90;;
37379;SDS011;23252;-33.992;18.480;2023-05-07T21:48:37;16.80;;;9.20;;
37379;SDS011;23252;-33.992;18.480;2023-05-07T21:51:05;14.87;;;8.57;;
37379;SDS011;23252;-33.992;18.480;2023-05-07T21:53:32;13.98;;;8.13;;
37379;SDS011;23252;-33.992;18.480;2023-05-07T21:55:59;17.50;;;8.02;;
37379;SDS011;23252;-33.992;18.480;2023-05-07T21:58:29;14.73;;;7.65;;
37379;SDS011;23252;-33.992;18.480;2023-05-07T22:00:56;16.45;;;7.53;;
37379;SDS011;23252;-33.992;18.480;2023-05-07T22:03:23;19.60;;;7.85;;
37379;SDS011;23252;-33.992;18.480;2023-05-07T22:05:49;13.07;;;7.00;;
37379;SDS011;23252;-33.992;18.480;2023-05-07T22:08:16;21.33;;;8.87;;
37379;SDS011;23252;-33.992;18.480;2023-05-07T22:10:42;16.77;;;8.57;;
37379;SDS011;23252;-33.992;18.480;2023-05-07T22:13:09;17.73;;;9.10;;
37379;SDS011;23252;-33.992;18.480;2023-05-07T22:15:35;18.53;;;9.40;;
37379;SDS011;23252;-33.992;18.480;2023-05-07T22:18:02;20.43;;;8.77;;
37379;SDS011;23252;-33.992;18.480;2023-05-07T22:20:28;16.80;;;8.57;;
37379;SDS011;23252;-33.992;18.480;2023-05-07T22:22:55;17.30;;;8.43;;
37379;SDS011;23252;-33.992;18.480;2023-05-07T22:25:22;19.05;;;8.95;;
37379;SDS011;23252;-33.992;18.480;2023-05-07T22:27:50;14.50;;;5.47;;
37379;SDS011;23252;-33.992;18.480;2023-05-07T22:30:17;15.05;;;6.18;;
37379;SDS011;23252;-33.992;18.480;2023-05-07T22:32:43;11.20;;;5.80;;
37379;SDS011;23252;-33.992;18.480;2023-05-07T22:35:10;8.63;;;4.65;;
37379;SDS011;23252;-33.992;18.480;2023-05-07T22:37:37;11.77;;;5.13;;
37379;SDS011;23252;-33.992;18.480;2023-05-07T22:40:03;13.35;;;4.63;;
37379;SDS011;23252;-33.992;18.480;2023-05-07T22:42:30;11.13;;;4.40;;
37379;SDS011;23252;-33.992;18.480;2023-05-07T22:44:57;12.57;;;5.10;;
37379;SDS011;23252;-33.992;18.480;2023-05-07T22:47:23;10.30;;;4.77;;
37379;SDS011;23252;-33.992;18.480;2023-05-07T22:49:53;10.32;;;4.15;;
37379;SDS011;23252;-33.992;18.480;2023-05-07T22:52:19;11.20;;;4.47;;
37379;SDS011;23252;-33.992;18.480;2023-05-07T22:54:45;9.57;;;4.00;;
37379;SDS011;23252;-33.992;18.480;2023-05-07T22:57:12;11.30;;;4.13;;
37379;SDS011;23252;-33.992;18.480;2023-05-07T22:59:38;7.97;;;3.60;;
37379;SDS011;23252;-33.992;18.480;2023-05-07T23:02:05;11.93;;;4.67;;
37379;SDS011;23252;-33.992;18.480;2023-05-07T23:04:32;7.57;;;3.88;;
37379;SDS011;23252;-33.992;18.480;2023-05-07T23:06:58;7.77;;;3.87;;
37379;SDS011;23252;-33.992;18.480;2023-05-07T23:09:25;11.33;;;4.30;;
37379;SDS011;23252;-33.992;18.480;2023-05-07T23:11:51;11.85;;;4.53;;